Terminal Aerodrome Forecast
Issued by NWS

Home | Current Version | Previous Version | Text Only | Print | Product List | Glossary On
Versions: 1 2 3 4 5 6 7 8 9 10 11 12 13
000
FTUS42 KFFC 281136
TAFRYY
TAF
KRYY 281136Z 2812/2912 19005KT 5SM BR BKN005
     FM281300 19005KT P6SM FEW015
     FM281600 17009KT P6SM SCT035
     FM290100 18007KT P6SM FEW250
     FM290900 16005KT P6SM FEW015=

USA.gov is the U.S. government's official web portal to all federal, state and local government web resources and services.